KCAK

Akron-Canton Regional Airport

Airport
ICAO code
KCAK
Summary
ICAO Region
NAM
ICAO Territory
Location

Akron, Ohio,

Coordinates
40° 54' 54" N , 81° 26' 13" W
KCC
Dfa
Airport WX
Cumulonimbus
Metar
Observation
KCAK 171051Z 05005KT 8SM BKN070 BKN110 17/16 A3008 RMK AO2 SLP181 T01720156
Station
Akron, Akron-Canton Regional Airport
Date/Time
2022-08-17 10:51:00
Wind direction
50°
Wind speed
05 kts
Lowest cloud amount
broken clouds
Temperature
17.2°C
Dew point
15.6°C
Humidity
90%
Weather condition
n/a

Description

Akron-Canton Regional Airport is a public use airport, located 16 km southeast of Akron and 16 km northwest of Canton, in the city of Green, in southern Summit County, Ohio.

Climatology

Humid continental climate (Köppen climate classification Dfa) - characterized by four seasons: cold, windy, snowy winters, mild springs, hot, humid summers, and crisp and relatively short autumns. Precipitation reaches its lowest in January and February and peaks in summer and latter half of spring.

Airport map

Aerial View

SKYbrary Partners:

Safety knowledge contributed by: